Time;durP1;ratioP1;P1;durP2;ratioP2;P2;SDS_P1;SDS_P2;PMS_P1;PMS_P2;Temp;Humidity;BMP_temperature;BMP_pressure;BME280_temperature;BME280_humidity;BME280_pressure;Samples;Min_cycle;Max_cycle;Signal;HPM_P1;HPM_P2
2023/04/24 00:01:36;;;;;;;;;4.50;3.00;;;;;9.95;73.82;99983.72;5067293;27;46857;-73
2023/04/24 00:04:03;;;;;;;;;3.00;3.00;;;;;9.94;74.26;99981.22;5071254;27;45870;-74
2023/04/24 00:06:32;;;;;;;;;5.00;3.00;;;;;9.95;74.70;99980.28;5060314;27;45649;-76
2023/04/24 00:09:00;;;;;;;;;5.00;2.00;;;;;9.93;74.70;99990.06;5070666;28;46630;-76
2023/04/24 00:11:25;;;;;;;;;1.50;1.50;;;;;9.89;74.59;99994.69;5071014;28;46114;-74
2023/04/24 00:13:51;;;;;;;;;3.50;3.00;;;;;9.88;75.32;99994.81;5066092;28;46009;-75
2023/04/24 00:16:16;;;;;;;;;3.00;3.00;;;;;9.91;75.11;99997.19;5070677;28;45754;-75
2023/04/24 00:18:41;;;;;;;;;4.00;2.50;;;;;9.87;75.14;99990.53;5067982;27;45881;-76
2023/04/24 00:21:07;;;;;;;;;4.25;4.25;;;;;9.86;74.86;100008.00;5070925;27;45996;-76
2023/04/24 00:23:32;;;;;;;;;0.75;0.75;;;;;9.86;74.22;100012.41;5070667;27;45825;-76
2023/04/24 00:25:57;;;;;;;;;5.00;5.00;;;;;9.81;74.75;100004.09;5070698;28;45779;-77
2023/04/24 00:28:23;;;;;;;;;4.75;4.50;;;;;9.80;75.22;100015.50;5070515;28;46311;-75
2023/04/24 00:30:48;;;;;;;;;6.00;5.00;;;;;9.77;75.76;100008.69;5070844;28;45640;-76
2023/04/24 00:33:14;;;;;;;;;5.75;5.00;;;;;9.79;75.18;100013.81;5070862;28;45620;-74
2023/04/24 00:35:40;;;;;;;;;5.50;3.00;;;;;9.77;75.41;100013.13;5069098;28;46059;-76
2023/04/24 00:38:05;;;;;;;;;3.50;2.00;;;;;9.72;75.63;100021.31;5070535;28;45834;-76
2023/04/24 00:40:31;;;;;;;;;5.75;5.00;;;;;9.71;76.12;100018.81;5070106;28;46099;-75
2023/04/24 00:42:56;;;;;;;;;3.50;2.50;;;;;9.74;76.49;100029.03;5070708;27;46292;-74
2023/04/24 00:45:22;;;;;;;;;1.00;1.00;;;;;9.74;75.32;100027.25;5070533;27;45838;-75
2023/04/24 00:47:48;;;;;;;;;3.50;2.75;;;;;9.72;75.77;100026.53;5070729;27;45718;-74
2023/04/24 00:50:15;;;;;;;;;5.00;4.50;;;;;9.74;76.51;100029.88;5070246;27;45759;-75
2023/04/24 00:52:40;;;;;;;;;2.50;2.25;;;;;9.73;75.07;100037.84;5066844;28;46100;-76
2023/04/24 00:55:06;;;;;;;;;5.50;2.00;;;;;9.63;76.16;100035.94;5069067;27;45845;-76
2023/04/24 00:57:32;;;;;;;;;2.75;2.00;;;;;9.63;75.71;100042.94;5070010;27;46503;-76
2023/04/24 00:59:58;;;;;;;;;5.25;3.00;;;;;9.59;76.23;100033.66;5070062;27;46122;-76
2023/04/24 01:02:24;;;;;;;;;6.00;3.00;;;;;9.62;76.81;100042.09;5070750;28;45616;-76
2023/04/24 01:04:52;;;;;;;;;4.75;3.50;;;;;9.65;76.71;100048.91;5068967;28;45833;-74
2023/04/24 01:07:21;;;;;;;;;6.00;5.75;;;;;9.69;76.64;100052.94;5059548;28;47700;-76
2023/04/24 01:09:48;;;;;;;;;3.00;2.00;;;;;9.68;75.19;100053.88;5067740;28;46089;-75
2023/04/24 01:12:15;;;;;;;;;5.25;4.50;;;;;9.63;75.57;100049.00;5069716;28;45631;-75
2023/04/24 01:14:40;;;;;;;;;2.25;1.00;;;;;9.65;76.99;100026.19;5070264;27;46100;-75
2023/04/24 01:17:07;;;;;;;;;2.50;0.00;;;;;9.72;76.61;100039.63;5068517;27;48033;-76
2023/04/24 01:19:32;;;;;;;;;5.00;5.00;;;;;9.75;77.38;100031.53;5070075;28;46240;-75
2023/04/24 01:22:01;;;;;;;;;3.00;3.00;;;;;9.76;77.03;100040.22;5069978;28;46407;-75
2023/04/24 01:24:28;;;;;;;;;4.50;3.00;;;;;9.76;76.50;100035.84;5069763;28;45929;-73
2023/04/24 01:26:53;;;;;;;;;3.50;3.00;;;;;9.71;76.52;100024.91;5068400;28;46596;-74
2023/04/24 01:29:19;;;;;;;;;3.00;2.25;;;;;9.77;76.70;100041.91;5069678;27;46110;-73
2023/04/24 01:31:44;;;;;;;;;1.25;1.25;;;;;9.77;76.36;100041.91;5069889;28;45583;-74
2023/04/24 01:34:10;;;;;;;;;2.00;2.00;;;;;9.79;76.46;100045.22;5069927;28;45561;-74
2023/04/24 01:36:36;;;;;;;;;6.50;4.00;;;;;9.77;75.55;100044.53;5069730;27;46541;-74
2023/04/24 01:39:03;;;;;;;;;2.50;2.00;;;;;9.74;76.74;100045.56;5069493;28;46195;-74
2023/04/24 01:41:29;;;;;;;;;3.00;3.00;;;;;9.77;76.73;100044.53;5069468;28;46333;-74
2023/04/24 01:43:55;;;;;;;;;3.00;3.00;;;;;9.80;75.83;100045.09;5066976;27;45755;-74
2023/04/24 01:46:21;;;;;;;;;5.25;5.00;;;;;9.78;76.49;100057.47;5069911;28;46101;-74
2023/04/24 01:48:47;;;;;;;;;3.00;3.00;;;;;9.78;76.45;100064.47;5069876;27;46024;-74
2023/04/24 01:51:13;;;;;;;;;2.25;2.25;;;;;9.79;76.43;100051.28;5069639;28;45527;-75
2023/04/24 01:53:38;;;;;;;;;3.00;3.00;;;;;9.83;77.25;100057.94;5069923;28;45606;-77
2023/04/24 01:56:03;;;;;;;;;5.00;3.00;;;;;9.88;77.06;100060.22;5069264;27;45818;-75
2023/04/24 01:58:29;;;;;;;;;3.00;2.00;;;;;9.89;75.88;100062.69;5069104;27;46128;-74
2023/04/24 02:00:57;;;;;;;;;3.00;3.00;;;;;9.92;77.04;100054.63;5065399;27;46541;-74
2023/04/24 02:03:22;;;;;;;;;4.50;3.00;;;;;9.96;76.06;100079.59;5069806;27;46101;-73
2023/04/24 02:05:48;;;;;;;;;2.25;2.25;;;;;9.91;76.29;100067.81;5062659;28;45705;-75
2023/04/24 02:08:13;;;;;;;;;5.75;4.00;;;;;9.90;76.70;100079.22;5063487;28;46985;-75
2023/04/24 02:10:38;;;;;;;;;2.75;2.50;;;;;9.87;76.51;100075.09;5069445;27;45724;-75
2023/04/24 02:13:04;;;;;;;;;2.50;2.00;;;;;9.86;76.58;100068.19;5063891;27;45836;-75
2023/04/24 02:15:30;;;;;;;;;3.00;2.00;;;;;9.90;75.57;100063.53;5069058;27;46142;-74
2023/04/24 02:17:55;;;;;;;;;1.50;1.00;;;;;9.86;75.34;100076.03;5064532;28;46075;-75
2023/04/24 02:20:21;;;;;;;;;4.50;3.00;;;;;9.84;76.56;100079.69;5069401;27;46088;-73
2023/04/24 02:22:46;;;;;;;;;4.00;2.25;;;;;9.83;76.43;100089.34;5069908;27;45983;-75
2023/04/24 02:25:11;;;;;;;;;5.00;3.00;;;;;9.81;76.30;100086.00;5070460;28;45749;-73
2023/04/24 02:27:37;;;;;;;;;2.00;1.50;;;;;9.79;75.81;100085.28;5072208;28;46081;-74
2023/04/24 02:30:02;;;;;;;;;2.25;2.00;;;;;9.79;76.53;100081.84;5072454;28;45703;-75
2023/04/24 02:32:28;;;;;;;;;2.00;2.00;;;;;9.81;76.84;100085.19;5072976;28;45752;-74
2023/04/24 02:34:53;;;;;;;;;2.50;2.50;;;;;9.83;76.60;100097.19;5067550;28;46283;-74
2023/04/24 02:37:19;;;;;;;;;2.50;2.00;;;;;9.86;76.73;100089.13;5072796;28;45688;-75
2023/04/24 02:39:44;;;;;;;;;3.00;2.00;;;;;9.88;77.24;100089.00;5072530;27;46100;-75
2023/04/24 02:42:10;;;;;;;;;3.00;3.00;;;;;9.93;77.13;100099.94;5072638;27;45992;-75
2023/04/24 02:44:35;;;;;;;;;4.50;4.50;;;;;9.92;77.18;100091.25;5068373;28;45982;-76
2023/04/24 02:47:00;;;;;;;;;3.00;3.00;;;;;9.99;77.37;100091.59;5072361;27;45814;-77
2023/04/24 02:49:26;;;;;;;;;2.75;2.50;;;;;10.03;76.33;100093.06;5071434;28;45764;-74
2023/04/24 02:51:52;;;;;;;;;5.50;3.25;;;;;10.02;76.96;100104.47;5068991;28;46124;-76
2023/04/24 02:54:17;;;;;;;;;2.75;2.75;;;;;10.00;77.03;100106.34;5072530;27;45783;-76
2023/04/24 02:56:42;;;;;;;;;4.50;2.75;;;;;9.98;75.76;100116.97;5072398;27;45702;-75
2023/04/24 02:59:10;;;;;;;;;2.50;2.50;;;;;9.95;75.85;100125.03;5071770;27;46078;-75
2023/04/24 03:01:35;;;;;;;;;3.50;3.00;;;;;9.91;76.74;100107.06;5072009;28;45685;-77
2023/04/24 03:04:01;;;;;;;;;3.50;2.50;;;;;9.90;77.25;100111.47;5071856;28;45987;-75
2023/04/24 03:06:26;;;;;;;;;3.00;3.00;;;;;9.86;76.98;100110.03;5060857;28;46558;-76
2023/04/24 03:08:52;;;;;;;;;3.75;2.25;;;;;9.90;76.98;100116.69;5067075;27;45614;-75
2023/04/24 03:11:17;;;;;;;;;2.00;2.00;;;;;9.92;77.35;100106.13;5072372;28;45871;-76
2023/04/24 03:13:43;;;;;;;;;5.00;3.00;;;;;9.97;76.87;100115.28;5071683;28;46525;-76
2023/04/24 03:16:08;;;;;;;;;1.00;1.00;;;;;9.94;76.31;100119.91;5070551;27;46057;-77
2023/04/24 03:18:34;;;;;;;;;5.50;2.00;;;;;9.92;77.12;100116.59;5071684;28;45493;-77
2023/04/24 03:21:00;;;;;;;;;2.50;2.00;;;;;9.89;76.70;100129.88;5071722;28;46031;-77
2023/04/24 03:23:25;;;;;;;;;3.00;2.00;;;;;9.89;76.84;100116.81;5072328;28;45949;-76
2023/04/24 03:25:51;;;;;;;;;2.00;2.00;;;;;9.87;77.03;100121.34;5070226;28;45989;-77
2023/04/24 03:28:16;;;;;;;;;1.75;1.75;;;;;9.89;76.58;100119.44;5071984;27;46383;-76
2023/04/24 03:30:41;;;;;;;;;2.00;2.00;;;;;9.84;76.72;100103.25;5071403;27;46024;-78
2023/04/24 03:33:07;;;;;;;;;5.00;2.00;;;;;9.80;76.85;100118.34;5072188;27;45716;-75
2023/04/24 03:35:32;;;;;;;;;2.00;1.50;;;;;9.81;75.45;100121.81;5071239;27;46168;-75
2023/04/24 03:37:58;;;;;;;;;1.50;1.50;;;;;9.77;76.41;100125.59;5071684;28;45707;-76
2023/04/24 03:40:23;;;;;;;;;2.00;2.00;;;;;9.78;77.44;100122.84;5071438;27;45680;-76
2023/04/24 03:42:49;;;;;;;;;3.00;2.00;;;;;9.77;76.85;100134.25;5066793;28;45797;-77
2023/04/24 03:45:14;;;;;;;;;5.00;3.00;;;;;9.75;76.49;100123.09;5070268;28;45726;-76
2023/04/24 03:47:39;;;;;;;;;4.50;2.00;;;;;9.77;77.05;100117.75;5071498;27;45642;-77
2023/04/24 03:50:05;;;;;;;;;2.00;2.00;;;;;9.78;76.92;100132.47;5071176;27;45889;-75
2023/04/24 03:52:31;;;;;;;;;5.00;2.25;;;;;9.79;77.69;100123.69;5071368;27;45968;-77
2023/04/24 03:54:56;;;;;;;;;3.50;3.00;;;;;9.81;77.08;100124.41;5070987;27;46137;-78
2023/04/24 03:57:21;;;;;;;;;4.00;2.50;;;;;9.80;77.44;100130.59;5071019;27;45865;-76
2023/04/24 03:59:47;;;;;;;;;2.75;2.00;;;;;9.82;77.35;100147.03;5069569;28;46100;-76
2023/04/24 04:02:12;;;;;;;;;3.00;2.25;;;;;9.81;77.38;100147.97;5071438;28;45877;-77
2023/04/24 04:04:37;;;;;;;;;3.00;3.00;;;;;9.85;76.88;100159.84;5070935;28;45923;-75
2023/04/24 04:07:03;;;;;;;;;4.00;2.25;;;;;9.82;76.85;100155.72;5059718;27;45742;-76
2023/04/24 04:09:29;;;;;;;;;4.25;3.00;;;;;9.79;76.40;100165.53;5071199;28;45667;-77
2023/04/24 04:11:54;;;;;;;;;5.75;3.00;;;;;9.79;77.08;100158.53;5071164;28;46359;-76
2023/04/24 04:14:21;;;;;;;;;3.00;3.00;;;;;9.75;77.01;100170.19;5070651;28;45689;-77
2023/04/24 04:16:46;;;;;;;;;5.00;4.00;;;;;9.73;77.79;100159.00;5066537;28;45786;-76
2023/04/24 04:19:11;;;;;;;;;2.50;2.50;;;;;9.74;77.24;100176.34;5070188;28;45914;-76
2023/04/24 04:21:37;;;;;;;;;3.00;3.00;;;;;9.74;78.00;100165.06;5070862;27;46731;-75
2023/04/24 04:24:02;;;;;;;;;3.00;3.00;;;;;9.79;77.88;100169.00;5070749;27;46044;-76
2023/04/24 04:26:27;;;;;;;;;5.50;4.50;;;;;9.84;78.19;100169.50;5070920;28;45708;-76
2023/04/24 04:28:53;;;;;;;;;5.50;5.00;;;;;9.88;78.17;100173.53;5070559;27;46063;-75
2023/04/24 04:31:20;;;;;;;;;4.75;3.00;;;;;9.90;77.67;100176.03;5070767;27;45771;-75
2023/04/24 04:33:46;;;;;;;;;7.00;5.75;;;;;9.90;77.31;100194.34;5070339;27;46501;-77
2023/04/24 04:36:11;;;;;;;;;4.50;3.00;;;;;9.85;77.37;100175.56;5070995;28;45668;-77
2023/04/24 04:38:37;;;;;;;;;2.00;2.00;;;;;9.86;77.08;100195.53;5070429;28;45702;-77
2023/04/24 04:41:03;;;;;;;;;3.75;3.00;;;;;9.82;77.30;100191.50;5070342;27;45720;-76
2023/04/24 04:43:28;;;;;;;;;6.00;3.75;;;;;9.83;78.09;100201.81;5064754;28;46181;-75
2023/04/24 04:45:55;;;;;;;;;5.00;3.00;;;;;9.85;77.53;100206.94;5070301;28;45885;-76
2023/04/24 04:48:21;;;;;;;;;3.00;2.00;;;;;9.82;77.60;100204.59;5070085;27;45838;-76
2023/04/24 04:50:46;;;;;;;;;2.00;2.00;;;;;9.78;76.61;100214.41;5065436;28;46468;-75
2023/04/24 04:53:12;;;;;;;;;5.00;3.00;;;;;9.71;77.53;100194.06;5068820;28;46554;-76
2023/04/24 04:55:37;;;;;;;;;5.00;3.75;;;;;9.71;77.48;100213.22;5070213;27;45650;-76
2023/04/24 04:58:03;;;;;;;;;5.25;5.00;;;;;9.67;77.78;100216.97;5070499;28;46102;-76
2023/04/24 05:00:33;;;;;;;;;5.25;5.00;;;;;9.65;77.69;100205.81;5069559;28;46297;-76
2023/04/24 05:02:59;;;;;;;;;3.00;3.00;;;;;9.64;77.66;100218.06;5070078;28;45932;-74
2023/04/24 05:05:24;;;;;;;;;6.00;4.50;;;;;9.62;77.63;100221.72;5064989;27;45985;-76
2023/04/24 05:07:49;;;;;;;;;5.00;1.50;;;;;9.61;78.47;100220.88;5059517;27;45808;-76
2023/04/24 05:10:15;;;;;;;;;5.25;5.00;;;;;9.64;78.76;100217.22;5069643;28;46376;-76
2023/04/24 05:12:40;;;;;;;;;6.50;5.50;;;;;9.69;78.35;100228.19;5070110;27;46464;-76
2023/04/24 05:15:06;;;;;;;;;7.00;6.00;;;;;9.67;78.80;100236.13;5070136;27;45927;-74
2023/04/24 05:17:31;;;;;;;;;6.50;5.00;;;;;9.74;78.80;100240.91;5068194;28;45950;-75
2023/04/24 05:19:57;;;;;;;;;7.00;6.00;;;;;9.77;78.25;100244.13;5069735;28;46462;-75
2023/04/24 05:22:23;;;;;;;;;8.00;5.00;;;;;9.74;78.36;100241.75;5070364;28;45861;-77
2023/04/24 05:24:49;;;;;;;;;7.75;5.00;;;;;9.78;78.61;100258.06;5069713;28;46170;-78
2023/04/24 05:27:14;;;;;;;;;5.50;5.00;;;;;9.75;77.69;100273.97;5069310;28;45838;-77
2023/04/24 05:29:40;;;;;;;;;6.25;5.75;;;;;9.69;77.77;100260.41;5069950;27;45697;-77
2023/04/24 05:32:06;;;;;;;;;6.50;6.00;;;;;9.69;78.09;100263.03;5070188;27;46127;-75
2023/04/24 05:34:32;;;;;;;;;10.75;8.00;;;;;9.75;78.54;100274.81;5069828;28;46310;-77
2023/04/24 05:36:57;;;;;;;;;5.00;2.75;;;;;9.76;78.43;100276.50;5070085;28;45836;-76
2023/04/24 05:39:24;;;;;;;;;8.00;7.00;;;;;9.79;78.51;100272.81;5069904;27;46599;-77
2023/04/24 05:41:50;;;;;;;;;6.25;3.00;;;;;9.78;78.01;100286.81;5069213;27;46161;-78
2023/04/24 05:44:15;;;;;;;;;7.50;6.25;;;;;9.79;77.97;100285.88;5069830;27;45892;-77
2023/04/24 05:46:40;;;;;;;;;6.75;6.00;;;;;9.78;78.21;100290.28;5069537;28;45758;-75
2023/04/24 05:49:06;;;;;;;;;5.00;3.00;;;;;9.81;78.20;100304.94;5069963;27;45726;-77
2023/04/24 05:51:31;;;;;;;;;9.00;7.75;;;;;9.82;78.81;100291.75;5069351;28;45708;-76
2023/04/24 05:53:57;;;;;;;;;11.50;7.00;;;;;9.88;78.80;100303.56;5069581;28;45795;-78
2023/04/24 05:56:22;;;;;;;;;6.00;6.00;;;;;9.90;78.92;100297.25;5070169;27;45831;-77
2023/04/24 05:58:48;;;;;;;;;2.00;1.25;;;;;9.96;78.88;100304.66;5065003;28;45762;-77
2023/04/24 06:01:16;;;;;;;;;10.75;8.00;;;;;10.04;78.76;100317.19;5069389;28;47293;-78
2023/04/24 06:03:42;;;;;;;;;11.00;7.75;;;;;10.10;78.57;100317.53;5071581;28;45644;-78
2023/04/24 06:06:07;;;;;;;;;8.50;7.25;;;;;10.14;78.73;100312.09;5063792;28;45751;-76
2023/04/24 06:08:33;;;;;;;;;10.00;7.25;;;;;10.20;78.78;100325.59;5071294;28;46182;-77
2023/04/24 06:10:59;;;;;;;;;9.75;7.00;;;;;10.23;77.95;100327.97;5072577;27;45790;-76
2023/04/24 06:13:24;;;;;;;;;7.75;7.75;;;;;10.18;77.38;100332.72;5072020;28;45684;-77
2023/04/24 06:15:50;;;;;;;;;14.75;10.75;;;;;10.21;78.46;100332.47;5072239;27;45880;-77
2023/04/24 06:18:15;;;;;;;;;8.25;6.50;;;;;10.23;77.79;100351.53;5071966;28;46221;-77
2023/04/24 06:20:41;;;;;;;;;10.00;8.50;;;;;10.24;78.29;100347.16;5072420;27;45808;-78
2023/04/24 06:23:06;;;;;;;;;11.00;10.00;;;;;10.26;78.53;100335.59;5073038;28;46071;-77
2023/04/24 06:25:32;;;;;;;;;12.00;10.00;;;;;10.35;78.79;100347.19;5068631;27;45904;-78
2023/04/24 06:27:57;;;;;;;;;8.75;8.00;;;;;10.39;77.48;100351.25;5070339;28;45833;-77
2023/04/24 06:30:23;;;;;;;;;10.75;7.00;;;;;10.35;77.10;100353.25;5072473;28;45897;-78
2023/04/24 06:32:48;;;;;;;;;14.50;12.00;;;;;10.34;77.64;100359.44;5067995;28;46266;-78
2023/04/24 06:35:13;;;;;;;;;7.00;7.00;;;;;10.34;78.30;100348.97;5069953;28;45662;-76
2023/04/24 06:37:40;;;;;;;;;17.25;12.25;;;;;10.39;78.06;100367.78;5072332;28;45720;-77
2023/04/24 06:40:07;;;;;;;;;12.00;10.25;;;;;10.37;77.97;100358.38;5072151;27;46137;-76
2023/04/24 06:42:32;;;;;;;;;20.25;16.75;;;;;10.43;78.62;100364.00;5072585;27;45616;-78
2023/04/24 06:44:58;;;;;;;;;12.00;11.25;;;;;10.49;78.45;100368.78;5072138;27;46085;-77
2023/04/24 06:47:23;;;;;;;;;13.50;10.75;;;;;10.53;78.06;100367.59;5070811;28;47490;-77
2023/04/24 06:49:50;;;;;;;;;15.00;12.25;;;;;10.53;77.82;100372.81;5071427;28;45556;-78
2023/04/24 06:52:16;;;;;;;;;13.50;11.00;;;;;10.59;78.15;100370.69;5072870;27;45901;-77
2023/04/24 06:54:41;;;;;;;;;11.75;11.00;;;;;10.66;77.47;100379.78;5072352;27;45792;-78
2023/04/24 06:57:08;;;;;;;;;6.25;6.00;;;;;10.66;74.92;100382.41;5077795;27;47528;-75
2023/04/24 06:59:33;;;;;;;;;11.00;9.50;;;;;10.59;77.41;100370.69;5071924;28;45761;-77
2023/04/24 07:01:59;;;;;;;;;11.75;10.75;;;;;10.67;77.85;100373.59;5072178;28;46003;-75
2023/04/24 07:04:24;;;;;;;;;12.25;11.50;;;;;10.72;77.28;100364.44;5070661;28;45816;-74
2023/04/24 07:06:51;;;;;;;;;12.25;11.00;;;;;10.70;77.50;100378.59;5061181;27;46597;-77
2023/04/24 07:09:18;;;;;;;;;11.50;11.50;;;;;10.68;76.77;100380.50;5072012;28;46227;-76
2023/04/24 07:11:44;;;;;;;;;11.75;11.00;;;;;10.65;76.66;100378.09;5069161;27;45853;-77
2023/04/24 07:14:10;;;;;;;;;27.50;26.25;;;;;10.64;77.25;100381.66;5069680;28;46068;-75
2023/04/24 07:16:35;;;;;;;;;65.75;51.00;;;;;10.64;76.73;100381.66;5070419;28;46300;-78
2023/04/24 07:19:01;;;;;;;;;14.00;13.00;;;;;10.70;76.94;100384.66;5071922;28;46123;-77
2023/04/24 07:21:27;;;;;;;;;15.25;13.50;;;;;10.75;76.88;100382.53;5071494;27;46008;-77
2023/04/24 07:23:52;;;;;;;;;14.75;13.00;;;;;10.82;76.95;100378.50;5082935;27;46157;-77
2023/04/24 07:26:18;;;;;;;;;15.00;14.00;;;;;10.89;77.22;100382.34;5069416;28;46452;-79
2023/04/24 07:28:43;;;;;;;;;13.00;12.00;;;;;10.97;76.71;100381.75;5071504;28;45813;-78
2023/04/24 07:31:11;;;;;;;;;13.75;12.50;;;;;11.01;76.86;100387.59;5071160;28;45762;-76
2023/04/24 07:33:36;;;;;;;;;18.00;15.50;;;;;11.02;76.36;100397.94;5071472;28;45782;-77
2023/04/24 07:36:02;;;;;;;;;11.75;11.00;;;;;11.06;76.59;100390.72;5071846;27;45730;-77
2023/04/24 07:38:29;;;;;;;;;15.75;14.00;;;;;11.11;76.25;100396.44;5071122;28;45688;-78
2023/04/24 07:40:55;;;;;;;;;13.50;12.25;;;;;11.12;76.67;100393.66;5069906;27;45898;-77
2023/04/24 07:43:21;;;;;;;;;13.25;11.25;;;;;11.19;74.67;100401.91;5072030;28;45712;-78
2023/04/24 07:45:46;;;;;;;;;16.50;15.00;;;;;11.16;76.00;100402.16;5071265;27;45684;-76
2023/04/24 07:48:14;;;;;;;;;18.00;13.50;;;;;11.16;75.76;100410.03;5071570;27;46076;-76
2023/04/24 07:50:40;;;;;;;;;13.25;11.75;;;;;11.14;75.39;100401.44;5071623;27;45716;-76
2023/04/24 07:53:05;;;;;;;;;13.25;12.25;;;;;11.16;75.26;100397.75;5071359;28;45675;-78
2023/04/24 07:55:31;;;;;;;;;14.00;13.00;;;;;11.17;75.39;100394.19;5071030;27;46412;-78
2023/04/24 07:57:56;;;;;;;;;14.25;13.00;;;;;11.11;75.66;100401.69;5068308;28;46340;-76
2023/04/24 08:00:21;;;;;;;;;21.50;17.25;;;;;11.16;76.36;100407.41;5070965;28;46177;-75
2023/04/24 08:02:47;;;;;;;;;18.00;14.50;;;;;11.19;75.38;100412.41;5071742;28;45715;-77
2023/04/24 08:05:12;;;;;;;;;16.75;14.00;;;;;11.16;75.75;100420.50;5066673;28;46023;-76
2023/04/24 08:07:38;;;;;;;;;16.75;13.25;;;;;11.10;75.73;100413.94;5064046;28;46556;-76
2023/04/24 08:10:04;;;;;;;;;17.25;15.00;;;;;11.13;75.59;100421.56;5070704;28;45668;-76
2023/04/24 08:12:30;;;;;;;;;14.75;12.00;;;;;11.15;75.71;100426.69;5071153;28;45778;-77
2023/04/24 08:14:55;;;;;;;;;18.00;14.50;;;;;11.17;76.17;100424.81;5069460;28;46438;-76
2023/04/24 08:17:21;;;;;;;;;16.25;13.00;;;;;11.22;74.89;100420.88;5069940;27;46264;-77
2023/04/24 08:19:48;;;;;;;;;15.25;14.75;;;;;11.22;74.97;100422.66;5071239;28;45725;-75
2023/04/24 08:22:14;;;;;;;;;17.75;15.50;;;;;11.29;76.10;100435.16;5070454;27;45683;-77
2023/04/24 08:24:40;;;;;;;;;13.00;12.75;;;;;11.38;75.82;100436.28;5070519;27;45602;-76
2023/04/24 08:27:05;;;;;;;;;13.75;13.00;;;;;11.42;75.17;100427.19;5070244;28;45696;-74
2023/04/24 08:29:31;;;;;;;;;14.00;11.75;;;;;11.37;75.05;100426.72;5070841;28;45951;-79
2023/04/24 08:31:57;;;;;;;;;14.50;12.75;;;;;11.43;75.00;100422.78;5068374;28;45911;-76
2023/04/24 08:34:22;;;;;;;;;18.00;13.50;;;;;11.41;74.74;100425.53;5070682;28;46277;-76
2023/04/24 08:36:48;;;;;;;;;16.00;14.75;;;;;11.44;73.18;100438.41;5070574;27;45588;-76
2023/04/24 08:39:15;;;;;;;;;18.00;15.25;;;;;11.44;74.27;100433.19;5070736;28;45774;-77
2023/04/24 08:41:45;;;;;;;;;21.50;18.50;;;;;11.54;74.93;100433.28;5070856;27;45836;-78
2023/04/24 08:44:12;;;;;;;;;23.00;16.50;;;;;11.65;74.68;100436.75;5070439;27;45720;-78
2023/04/24 08:46:40;;;;;;;;;18.00;16.50;;;;;11.78;74.78;100431.38;5069776;28;46080;-78
2023/04/24 08:49:06;;;;;;;;;19.75;15.25;;;;;11.89;73.96;100444.50;5068549;28;45726;-77
2023/04/24 08:51:31;;;;;;;;;18.50;15.50;;;;;11.95;73.90;100451.06;5070734;28;45941;-77
2023/04/24 08:53:57;;;;;;;;;12.50;12.00;;;;;11.89;72.19;100444.50;5062431;27;45610;-78
2023/04/24 08:56:23;;;;;;;;;14.75;14.50;;;;;11.92;74.35;100438.19;5070278;28;46712;-77
2023/04/24 08:58:50;;;;;;;;;17.75;15.75;;;;;11.97;72.71;100439.50;5070890;27;45794;-78
2023/04/24 09:01:16;;;;;;;;;16.25;12.00;;;;;12.04;73.06;100432.78;5070407;28;46147;-76
2023/04/24 09:03:42;;;;;;;;;15.25;13.50;;;;;12.11;73.75;100425.25;5070222;28;46307;-79
2023/04/24 09:06:11;;;;;;;;;9.00;9.00;;;;;12.19;72.44;100422.84;5060667;28;45692;-77
2023/04/24 09:08:38;;;;;;;;;18.00;15.00;;;;;12.29;72.90;100436.06;5069192;28;45947;-78
2023/04/24 09:11:04;;;;;;;;;15.75;15.00;;;;;12.34;73.09;100439.16;5070106;27;45726;-78
2023/04/24 09:13:30;;;;;;;;;18.00;16.75;;;;;12.32;71.41;100447.16;5069682;28;46584;-78
2023/04/24 09:15:57;;;;;;;;;18.00;15.75;;;;;12.34;72.51;100440.00;5070354;28;46582;-79
2023/04/24 09:18:22;;;;;;;;;9.25;8.25;;;;;12.43;72.20;100454.16;5069030;28;46101;-75
2023/04/24 09:21:00;;;;;;;;;15.75;13.50;;;;;12.47;71.33;100461.66;5068666;27;46444;-75
2023/04/24 09:23:31;;;;;;;;;16.25;13.50;;;;;12.46;71.61;100456.56;5061362;28;46498;-78
2023/04/24 09:25:57;;;;;;;;;21.00;18.25;;;;;12.42;71.14;100449.84;5064447;28;46585;-78
2023/04/24 09:28:36;;;;;;;;;16.25;13.75;;;;;12.41;71.63;100454.31;5070114;28;45773;-77
2023/04/24 09:31:09;;;;;;;;;16.00;14.25;;;;;12.48;71.51;100452.81;5069858;27;45667;-78
2023/04/24 09:33:35;;;;;;;;;16.00;14.75;;;;;12.53;71.35;100455.06;5069959;27;46918;-77
2023/04/24 09:36:00;;;;;;;;;19.25;16.00;;;;;12.53;71.90;100463.78;5073584;27;45711;-79
2023/04/24 09:38:32;;;;;;;;;18.50;17.00;;;;;12.60;70.67;100472.03;5073321;27;45703;-76
2023/04/24 09:41:03;;;;;;;;;15.00;13.50;;;;;12.68;72.21;100471.41;5072973;28;45944;-78
2023/04/24 09:43:28;;;;;;;;;17.50;14.50;;;;;12.66;68.97;100474.16;5073562;28;46454;-78
2023/04/24 09:45:56;;;;;;;;;16.00;13.00;;;;;12.63;69.71;100472.59;5073745;28;45805;-77
2023/04/24 09:48:35;;;;;;;;;15.00;12.50;;;;;12.60;71.41;100478.13;5073036;27;45672;-76
2023/04/24 09:51:03;;;;;;;;;13.00;12.25;;;;;12.63;70.76;100469.97;5085565;27;45961;-75
2023/04/24 09:53:30;;;;;;;;;18.00;15.00;;;;;12.71;70.23;100474.59;5071493;28;45983;-77
2023/04/24 09:55:55;;;;;;;;;17.00;16.00;;;;;12.78;70.64;100469.69;5073738;27;46220;-75
2023/04/24 09:58:28;;;;;;;;;17.00;14.00;;;;;12.80;70.52;100467.75;5069746;28;46039;-79
2023/04/24 10:00:56;;;;;;;;;15.00;14.00;;;;;12.88;68.85;100467.97;5073064;27;45759;-79
2023/04/24 10:03:25;;;;;;;;;11.25;5.50;;;;;12.87;68.82;100471.56;5071979;27;45741;-76
2023/04/24 10:05:51;;;;;;;;;15.00;12.75;;;;;12.86;68.35;100462.81;5066149;27;46196;-80
2023/04/24 10:08:17;;;;;;;;;12.50;12.00;;;;;12.87;68.84;100463.66;5069561;28;46274;-78
2023/04/24 10:10:44;;;;;;;;;15.00;13.25;;;;;12.90;68.91;100466.84;5072965;28;45667;-78
2023/04/24 10:13:11;;;;;;;;;15.50;15.25;;;;;13.00;68.50;100466.94;5067433;27;45728;-77
2023/04/24 10:15:38;;;;;;;;;11.00;11.00;;;;;13.01;69.31;100465.97;5068612;28;46094;-76
2023/04/24 10:18:06;;;;;;;;;14.00;12.75;;;;;13.11;69.55;100466.91;5071440;27;45929;-78
2023/04/24 10:20:32;;;;;;;;;14.50;12.00;;;;;13.22;67.79;100469.50;5073038;27;45685;-77
2023/04/24 10:22:59;;;;;;;;;17.50;17.25;;;;;13.27;67.99;100463.84;5073210;27;46531;-75
2023/04/24 10:25:35;;;;;;;;;12.00;12.00;;;;;13.35;68.56;100470.09;5071877;27;46318;-77
2023/04/24 10:28:01;;;;;;;;;14.25;11.25;;;;;13.47;68.51;100473.50;5072694;28;45580;-74
2023/04/24 10:30:30;;;;;;;;;15.00;12.25;;;;;13.54;67.08;100460.66;5070596;28;45574;-76
2023/04/24 10:32:56;;;;;;;;;20.00;18.25;;;;;13.56;67.52;100472.69;5069687;28;46716;-79
2023/04/24 10:35:25;;;;;;;;;14.50;12.50;;;;;13.65;67.54;100479.81;5072426;28;46169;-79
2023/04/24 10:37:56;;;;;;;;;15.25;13.75;;;;;13.73;67.39;100472.09;5072623;27;45970;-75
2023/04/24 10:40:29;;;;;;;;;16.25;12.50;;;;;13.77;67.05;100473.47;5072641;27;45597;-77
2023/04/24 10:42:56;;;;;;;;;15.25;12.00;;;;;13.78;67.00;100466.41;5066794;28;46083;-77
2023/04/24 10:45:23;;;;;;;;;16.50;13.25;;;;;13.79;66.97;100473.34;5071685;27;45551;-76
2023/04/24 10:48:01;;;;;;;;;10.25;9.50;;;;;13.81;66.95;100468.81;5068223;28;45652;-77
2023/04/24 10:50:45;;;;;;;;;11.50;11.25;;;;;13.88;66.09;100473.38;5072637;28;46031;-77
2023/04/24 10:53:18;;;;;;;;;18.50;13.50;;;;;13.94;66.03;100479.91;5072540;27;46225;-79
2023/04/24 10:55:47;;;;;;;;;12.00;11.00;;;;;13.99;66.42;100474.25;5072908;27;46157;-75
2023/04/24 10:58:12;;;;;;;;;13.00;11.75;;;;;14.03;66.49;100465.97;5072321;27;45823;-75
2023/04/24 11:00:40;;;;;;;;;11.00;10.00;;;;;14.13;64.47;100464.19;5071983;28;46034;-77
2023/04/24 11:03:23;;;;;;;;;10.50;10.00;;;;;14.14;63.87;100465.03;5072015;27;46289;-77
2023/04/24 11:05:55;;;;;;;;;10.75;9.50;;;;;14.15;65.73;100461.41;5056923;28;46625;-77
2023/04/24 11:08:24;;;;;;;;;10.25;9.50;;;;;14.23;65.84;100456.28;5068910;28;46070;-75
2023/04/24 11:10:58;;;;;;;;;9.00;8.50;;;;;14.27;62.14;100461.16;5072584;28;45767;-77
2023/04/24 11:13:48;;;;;;;;;13.50;12.00;;;;;14.11;63.33;100458.22;5070837;28;48251;-77
2023/04/24 11:16:39;;;;;;;;;10.00;10.00;;;;;14.04;65.31;100464.97;5066745;28;46263;-76
2023/04/24 11:19:06;;;;;;;;;15.25;10.75;;;;;14.08;64.76;100465.56;5028362;28;45994;-75